Time;durP1;ratioP1;P1;durP2;ratioP2;P2;SDS_P1;SDS_P2;PMS_P1;PMS_P2;Temp;Humidity;BMP_temperature;BMP_pressure;BME280_temperature;BME280_humidity;BME280_pressure;Samples;Min_cycle;Max_cycle;Signal;HPM_P1;HPM_P2
2024/01/12 00:00:12;;;;;;;;;;;;;;;16.64;39.07;101284.44;10328819;28;1964;-77
2024/01/12 00:05:08;;;;;;;;;;;;;;;16.63;39.10;101295.84;10328860;28;837;-77
2024/01/12 00:10:04;;;;;;;;;;;;;;;16.64;39.10;101304.63;10328992;28;876;-77
2024/01/12 00:15:00;;;;;;;;;;;;;;;16.62;39.13;101311.66;10329298;28;853;-78
2024/01/12 00:19:56;;;;;;;;;;;;;;;16.60;39.10;101309.03;10327727;28;1878;-77
2024/01/12 00:24:52;;;;;;;;;;;;;;;16.61;39.09;101305.53;10328116;28;778;-78
2024/01/12 00:29:48;;;;;;;;;;;;;;;16.60;39.08;101303.78;10328519;28;790;-77
2024/01/12 00:34:43;;;;;;;;;;;;;;;16.60;39.33;101319.56;10327651;28;872;-77
2024/01/12 00:39:39;;;;;;;;;;;;;;;16.60;39.18;101308.19;10326752;28;1981;-78
2024/01/12 00:44:35;;;;;;;;;;;;;;;16.59;39.12;101307.31;10326755;28;893;-78
2024/01/12 00:49:31;;;;;;;;;;;;;;;16.60;39.28;101298.50;10327729;28;1012;-78
2024/01/12 00:54:27;;;;;;;;;;;;;;;16.60;39.26;101300.28;10326956;28;818;-77
2024/01/12 00:59:24;;;;;;;;;;;;;;;16.57;39.36;101298.56;10326671;28;1953;-77
2024/01/12 01:04:20;;;;;;;;;;;;;;;16.60;39.03;101293.25;10326016;28;857;-77
2024/01/12 01:09:15;;;;;;;;;;;;;;;16.57;39.09;101297.69;10327050;28;893;-78
2024/01/12 01:14:11;;;;;;;;;;;;;;;16.57;39.11;101298.56;10326881;28;847;-78
2024/01/12 01:19:07;;;;;;;;;;;;;;;16.60;39.18;101289.75;10326607;28;1901;-77
2024/01/12 01:24:03;;;;;;;;;;;;;;;16.56;38.96;101295.97;10326018;28;814;-78
2024/01/12 01:28:59;;;;;;;;;;;;;;;16.55;39.28;101291.56;10326450;28;868;-78
2024/01/12 01:33:55;;;;;;;;;;;;;;;16.56;39.31;101293.34;10325710;28;1040;-78
2024/01/12 01:38:51;;;;;;;;;;;;;;;16.54;39.22;101290.72;10324824;28;1922;-78
2024/01/12 01:43:47;;;;;;;;;;;;;;;16.56;39.16;101295.97;10326130;28;985;-78
2024/01/12 01:48:43;;;;;;;;;;;;;;;16.55;39.31;101300.34;10325438;28;769;-78
2024/01/12 01:53:39;;;;;;;;;;;;;;;16.53;39.21;101302.16;10325296;28;866;-77
2024/01/12 01:58:35;;;;;;;;;;;;;;;16.55;39.27;101294.22;10325212;28;1959;-77
2024/01/12 02:03:30;;;;;;;;;;;;;;;16.54;39.12;101308.28;10325788;28;809;-78
2024/01/12 02:08:26;;;;;;;;;;;;;;;16.54;39.14;101305.63;10324403;28;898;-77
2024/01/12 02:13:22;;;;;;;;;;;;;;;16.54;39.11;101298.59;10325281;28;833;-78
2024/01/12 02:18:18;;;;;;;;;;;;;;;16.54;39.20;101310.91;10333054;28;1902;-77
2024/01/12 02:23:14;;;;;;;;;;;;;;;16.53;39.06;101311.78;10332938;28;1009;-77
2024/01/12 02:28:10;;;;;;;;;;;;;;;16.54;39.07;101314.41;10332710;28;850;-78
2024/01/12 02:33:06;;;;;;;;;;;;;;;16.56;39.05;101306.50;10333095;28;854;-77
2024/01/12 02:38:02;;;;;;;;;;;;;;;16.53;39.21;101307.41;10332867;28;1985;-77
2024/01/12 02:42:58;;;;;;;;;;;;;;;16.53;39.20;101306.50;10332740;28;770;-78
2024/01/12 02:47:53;;;;;;;;;;;;;;;16.54;39.15;101310.91;10331889;28;930;-77
2024/01/12 02:52:49;;;;;;;;;;;;;;;16.51;39.28;101306.56;10332296;28;811;-77
2024/01/12 02:57:45;;;;;;;;;;;;;;;16.52;39.15;101291.63;10332038;28;1960;-78
2024/01/12 03:02:41;;;;;;;;;;;;;;;16.52;39.13;101302.16;10331329;28;849;-78
2024/01/12 03:07:37;;;;;;;;;;;;;;;16.51;39.33;101303.06;10331191;28;972;-77
2024/01/12 03:12:33;;;;;;;;;;;;;;;16.51;39.06;101303.06;10332460;28;881;-77
2024/01/12 03:17:29;;;;;;;;;;;;;;;16.50;39.28;101307.41;10330755;28;1957;-78
2024/01/12 03:22:25;;;;;;;;;;;;;;;16.48;39.35;101303.97;10331365;28;859;-76
2024/01/12 03:27:21;;;;;;;;;;;;;;;16.51;39.27;101300.41;10329626;28;921;-77
2024/01/12 03:32:17;;;;;;;;;;;;;;;16.50;39.14;101290.75;10330913;28;825;-78
2024/01/12 03:37:13;;;;;;;;;;;;;;;16.49;39.25;101289.03;10329549;28;1914;-77
2024/01/12 03:42:09;;;;;;;;;;;;;;;16.48;39.34;101293.44;10330522;28;949;-78
2024/01/12 03:47:05;;;;;;;;;;;;;;;16.53;39.06;101306.50;10329743;28;789;-78
2024/01/12 03:52:01;;;;;;;;;;;;;;;16.49;39.24;101299.56;10329498;28;1153;-77
2024/01/12 03:56:57;;;;;;;;;;;;;;;16.49;39.34;101289.91;10329191;28;1960;-77
2024/01/12 04:01:53;;;;;;;;;;;;;;;16.51;39.25;101292.53;10328741;28;813;-77
2024/01/12 04:06:48;;;;;;;;;;;;;;;16.48;39.29;101266.22;10328275;28;924;-78
2024/01/12 04:11:44;;;;;;;;;;;;;;;16.48;39.21;101274.13;10329366;28;913;-78
2024/01/12 04:16:40;;;;;;;;;;;;;;;16.50;39.14;101270.56;10328448;28;1898;-78
2024/01/12 04:21:36;;;;;;;;;;;;;;;16.52;39.06;101276.69;10328279;28;826;-78
2024/01/12 04:26:32;;;;;;;;;;;;;;;16.56;39.13;101278.41;10328864;28;782;-78
2024/01/12 04:31:28;;;;;;;;;;;;;;;16.55;38.99;101268.75;10327938;28;890;-78
2024/01/12 04:36:24;;;;;;;;;;;;;;;16.62;39.08;101267.78;10327385;28;1917;-78
2024/01/12 04:41:20;;;;;;;;;;;;;;;16.61;38.86;101258.16;10327922;28;825;-77
2024/01/12 04:46:15;;;;;;;;;;;;;;;16.62;38.90;101251.13;10327911;28;791;-77
2024/01/12 04:51:12;;;;;;;;;;;;;;;16.68;38.98;101243.13;10326579;28;935;-77
2024/01/12 04:56:08;;;;;;;;;;;;;;;16.72;38.77;101244.84;10327398;28;1905;-77
2024/01/12 05:01:04;;;;;;;;;;;;;;;16.70;39.05;101251.00;10327585;28;909;-73
2024/01/12 05:06:00;;;;;;;;;;;;;;;16.76;38.79;101257.03;10326559;28;728;-77
2024/01/12 05:10:55;;;;;;;;;;;;;;;16.72;39.04;101267.66;10327138;28;917;-77
2024/01/12 05:15:51;;;;;;;;;;;;;;;16.77;38.94;101261.47;10326117;28;1965;-77
2024/01/12 05:20:47;;;;;;;;;;;;;;;16.83;38.75;101271.03;10326664;28;902;-77
2024/01/12 05:25:43;;;;;;;;;;;;;;;16.84;39.02;101278.03;10326530;28;845;-77
2024/01/12 05:30:39;;;;;;;;;;;;;;;16.85;38.96;101282.41;10325832;28;873;-77
2024/01/12 05:35:35;;;;;;;;;;;;;;;16.88;39.09;101298.16;10325830;28;1914;-77
2024/01/12 05:40:31;;;;;;;;;;;;;;;16.85;39.05;101299.09;10326081;28;873;-81
2024/01/12 05:45:27;;;;;;;;;;;;;;;16.88;39.16;101302.56;10325597;28;894;-77
2024/01/12 05:50:23;;;;;;;;;;;;;;;16.86;38.96;101300.81;10324950;28;802;-78
2024/01/12 05:55:19;;;;;;;;;;;;;;;16.88;38.95;101292.91;10324798;28;995;-77
2024/01/12 06:00:15;;;;;;;;;;;;;;;16.94;38.87;101294.56;10325811;28;1947;-85
2024/01/12 06:05:11;;;;;;;;;;;;;;;16.78;39.27;101281.63;10324571;28;889;-79
2024/01/12 06:10:09;;;;;;;;;;;;;;;16.89;38.86;101275.34;10325099;28;882;-80
2024/01/12 06:15:05;;;;;;;;;;;;;;;16.96;38.79;101271.72;10325543;28;830;-73
2024/01/12 06:20:01;;;;;;;;;;;;;;;16.90;38.87;101275.31;10324717;28;1893;-78
2024/01/12 06:24:57;;;;;;;;;;;;;;;16.96;38.92;101274.34;10324877;28;771;-76
2024/01/12 06:29:53;;;;;;;;;;;;;;;16.95;38.99;101262.06;10324668;28;1050;-78
2024/01/12 06:34:49;;;;;;;;;;;;;;;16.96;39.12;101242.75;10325178;28;766;-77
2024/01/12 06:39:45;;;;;;;;;;;;;;;17.01;39.14;101247.03;10324882;28;1910;-80
2024/01/12 06:44:41;;;;;;;;;;;;;;;17.00;39.23;101239.16;10324354;28;916;-81
2024/01/12 06:49:37;;;;;;;;;;;;;;;17.03;39.03;101244.41;10324856;28;931;-76
2024/01/12 06:54:33;;;;;;;;;;;;;;;17.00;39.36;101249.69;10324875;28;842;-77
2024/01/12 06:59:28;;;;;;;;;;;;;;;17.03;39.20;101252.28;10323993;28;1894;-78
2024/01/12 07:04:24;;;;;;;;;;;;;;;17.00;39.33;101254.97;10329431;28;878;-75
2024/01/12 07:09:20;;;;;;;;;;;;;;;16.93;39.38;101258.59;10330557;28;874;-81
2024/01/12 07:14:17;;;;;;;;;;;;;;;16.85;39.74;101251.69;10331001;28;818;-74
2024/01/12 07:19:13;;;;;;;;;;;;;;;16.79;39.63;101256.16;10331395;28;1955;-77
2024/01/12 07:24:08;;;;;;;;;;;;;;;16.67;39.79;101251.94;10330653;28;889;-77
2024/01/12 07:29:05;;;;;;;;;;;;;;;16.60;39.90;101273.97;10331100;28;908;-78
2024/01/12 07:34:01;;;;;;;;;;;;;;;16.63;39.74;101264.25;10330795;28;1114;-77
2024/01/12 07:38:57;;;;;;;;;;;;;;;16.63;39.64;101260.75;10330267;28;1971;-82
2024/01/12 07:43:54;;;;;;;;;;;;;;;16.65;39.71;101248.44;10329906;28;940;-78
2024/01/12 07:48:51;;;;;;;;;;;;;;;16.68;39.68;101258.91;10330265;28;884;-77
2024/01/12 07:53:47;;;;;;;;;;;;;;;16.70;39.62;101256.28;10330138;28;837;-78
2024/01/12 07:58:43;;;;;;;;;;;;;;;16.77;39.51;101266.72;10329863;28;1886;-77
2024/01/12 08:03:39;;;;;;;;;;;;;;;16.77;39.34;101269.38;10329381;28;973;-77
2024/01/12 08:08:35;;;;;;;;;;;;;;;16.81;39.40;101273.69;10329537;28;750;-77
2024/01/12 08:13:30;;;;;;;;;;;;;;;16.85;39.45;101283.28;10327724;28;855;-77
2024/01/12 08:18:26;;;;;;;;;;;;;;;16.89;39.34;101281.47;10328429;28;1890;-78
2024/01/12 08:23:22;;;;;;;;;;;;;;;16.91;39.15;101284.09;10328892;28;890;-77
2024/01/12 08:28:18;;;;;;;;;;;;;;;16.91;39.55;101284.94;10328050;28;1618;-78
2024/01/12 08:33:14;;;;;;;;;;;;;;;16.88;39.49;101285.00;10327854;28;928;-77
2024/01/12 08:38:10;;;;;;;;;;;;;;;16.89;39.14;101289.38;10327374;28;1910;-77
2024/01/12 08:43:06;;;;;;;;;;;;;;;16.92;39.25;101301.63;10327473;28;905;-77
2024/01/12 08:48:02;;;;;;;;;;;;;;;16.90;39.03;101296.41;10326622;28;1152;-76
2024/01/12 08:52:58;;;;;;;;;;;;;;;16.94;39.17;101292.81;10324896;28;822;-75
2024/01/12 08:57:54;;;;;;;;;;;;;;;16.96;39.19;101284.88;10326357;28;1894;-76
2024/01/12 09:02:50;;;;;;;;;;;;;;;16.95;39.19;101283.13;10326231;28;858;-77
2024/01/12 09:07:46;;;;;;;;;;;;;;;16.97;39.05;101271.69;10326330;28;1635;-77
2024/01/12 09:12:42;;;;;;;;;;;;;;;16.96;39.12;101280.50;10325685;28;918;-77
2024/01/12 09:17:39;;;;;;;;;;;;;;;16.94;39.11;101276.13;10326257;28;1890;-78
2024/01/12 09:22:35;;;;;;;;;;;;;;;16.98;39.32;101289.25;10325353;28;924;-78
2024/01/12 09:27:31;;;;;;;;;;;;;;;16.97;38.96;101287.47;10325159;28;951;-78
2024/01/12 09:32:27;;;;;;;;;;;;;;;17.01;39.01;101285.69;10325219;28;872;-78
2024/01/12 09:37:23;;;;;;;;;;;;;;;17.02;38.96;101288.28;10325339;28;1906;-78
2024/01/12 09:42:19;;;;;;;;;;;;;;;16.99;39.25;101304.13;10325134;28;818;-79
2024/01/12 09:47:16;;;;;;;;;;;;;;;17.01;39.22;101291.81;10325411;28;849;-78
2024/01/12 09:52:12;;;;;;;;;;;;;;;17.04;39.19;101290.91;10325041;28;904;-78
2024/01/12 09:57:08;;;;;;;;;;;;;;;17.04;39.22;101298.81;10324935;28;1890;-78
2024/01/12 10:02:04;;;;;;;;;;;;;;;17.08;38.97;101289.94;10325157;28;837;-78
2024/01/12 10:07:00;;;;;;;;;;;;;;;17.09;38.95;101287.31;10324927;28;854;-78
2024/01/12 10:11:56;;;;;;;;;;;;;;;17.08;39.00;101288.22;10325076;28;790;-81
2024/01/12 10:16:51;;;;;;;;;;;;;;;17.12;39.01;101281.13;10324592;28;1951;-79
2024/01/12 10:21:47;;;;;;;;;;;;;;;17.13;39.18;101267.03;10324786;28;822;-79
2024/01/12 10:26:43;;;;;;;;;;;;;;;17.13;39.14;101271.44;10324483;28;1019;-79
2024/01/12 10:31:39;;;;;;;;;;;;;;;17.14;39.07;101265.28;10324048;28;864;-76
2024/01/12 10:36:35;;;;;;;;;;;;;;;17.14;39.56;101263.53;10327451;28;1898;-79
2024/01/12 10:41:31;;;;;;;;;;;;;;;17.16;39.37;101264.38;10331314;28;984;-80
2024/01/12 10:46:27;;;;;;;;;;;;;;;17.13;39.46;101255.63;10331814;28;963;-78
2024/01/12 10:51:23;;;;;;;;;;;;;;;17.13;39.63;101243.31;10331008;28;1112;-78
2024/01/12 10:56:19;;;;;;;;;;;;;;;17.13;39.72;101240.69;10331507;28;1894;-78
2024/01/12 11:01:15;;;;;;;;;;;;;;;17.14;39.64;101231.91;10330785;28;920;-78
2024/01/12 11:06:10;;;;;;;;;;;;;;;17.16;39.60;101226.59;10331331;28;802;-77
2024/01/12 11:11:06;;;;;;;;;;;;;;;17.14;39.52;101223.13;10331301;28;893;-77
2024/01/12 11:16:02;;;;;;;;;;;;;;;17.12;39.53;101223.16;10331111;28;1902;-78
2024/01/12 11:20:58;;;;;;;;;;;;;;;17.13;39.39;101230.16;10330346;28;822;-76
2024/01/12 11:25:54;;;;;;;;;;;;;;;17.15;39.44;101236.25;10330906;28;857;-77
2024/01/12 11:30:50;;;;;;;;;;;;;;;17.13;39.39;101240.69;10329969;28;814;-77
2024/01/12 11:35:51;;;;;;;;;;;;;;;17.17;39.41;101239.75;10329775;28;1987;-77
2024/01/12 11:40:48;;;;;;;;;;;;;;;17.13;39.28;101245.09;10329587;28;1009;-78
2024/01/12 11:45:44;;;;;;;;;;;;;;;17.13;39.29;101234.56;10329494;28;838;-78
2024/01/12 11:50:40;;;;;;;;;;;;;;;17.15;39.34;101230.13;10328453;28;882;-76
2024/01/12 11:55:36;;;;;;;;;;;;;;;17.16;39.46;101211.69;10328454;28;874;-76
2024/01/12 12:00:33;;;;;;;;;;;;;;;17.13;39.26;101198.53;10328798;28;1898;-76
2024/01/12 12:05:28;;;;;;;;;;;;;;;17.19;39.22;101189.69;10328639;28;836;-76
2024/01/12 12:10:25;;;;;;;;;;;;;;;17.19;39.27;101177.38;10329059;28;865;-74
2024/01/12 12:15:21;;;;;;;;;;;;;;;17.21;39.07;101175.56;10328255;28;896;-75
2024/01/12 12:20:17;;;;;;;;;;;;;;;17.20;39.17;101167.69;10327949;28;1898;-76
2024/01/12 12:25:13;;;;;;;;;;;;;;;17.23;39.27;101152.69;10328461;28;862;-76
2024/01/12 12:30:09;;;;;;;;;;;;;;;17.21;39.13;101154.50;10328270;28;951;-77
2024/01/12 12:35:05;;;;;;;;;;;;;;;17.23;39.18;101147.41;10328406;28;1098;-76
2024/01/12 12:40:03;;;;;;;;;;;;;;;17.25;38.85;101134.22;10327071;28;1914;-77
2024/01/12 12:44:59;;;;;;;;;;;;;;;17.26;39.14;101125.41;10326985;28;795;-77
2024/01/12 12:49:55;;;;;;;;;;;;;;;17.22;38.90;101124.59;10326957;28;1085;-77
2024/01/12 12:54:51;;;;;;;;;;;;;;;17.22;39.03;101102.66;10326591;28;869;-77
2024/01/12 12:59:47;;;;;;;;;;;;;;;17.20;39.26;101096.53;10326452;28;1961;-76
2024/01/12 13:04:43;;;;;;;;;;;;;;;17.25;39.19;101106.09;10326264;28;770;-76
2024/01/12 13:09:39;;;;;;;;;;;;;;;17.23;38.88;101081.53;10326204;28;777;-76
2024/01/12 13:14:35;;;;;;;;;;;;;;;17.25;39.19;101085.00;10326428;28;921;-76
2024/01/12 13:19:31;;;;;;;;;;;;;;;17.25;39.29;101092.06;10325766;28;1965;-74
2024/01/12 13:24:28;;;;;;;;;;;;;;;17.23;39.31;101104.38;10326197;28;825;-76
2024/01/12 13:29:24;;;;;;;;;;;;;;;17.19;39.39;101086.91;10325920;28;846;-77
2024/01/12 13:34:21;;;;;;;;;;;;;;;17.19;39.70;101077.25;10325552;28;933;-77
2024/01/12 13:39:16;;;;;;;;;;;;;;;17.21;39.52;101086.00;10324788;28;1909;-77
2024/01/12 13:44:14;;;;;;;;;;;;;;;17.25;39.28;101082.38;10325168;28;1050;-77
2024/01/12 13:49:10;;;;;;;;;;;;;;;17.22;39.72;101082.44;10324453;28;996;-76
2024/01/12 13:54:06;;;;;;;;;;;;;;;17.21;39.54;101075.44;10324910;28;921;-77
2024/01/12 13:59:03;;;;;;;;;;;;;;;17.25;39.63;101071.84;10324814;28;1914;-77
2024/01/12 14:03:59;;;;;;;;;;;;;;;17.22;39.34;101082.44;10325489;28;945;-77
2024/01/12 14:08:55;;;;;;;;;;;;;;;17.27;39.35;101082.38;10324993;28;822;-77
2024/01/12 14:13:51;;;;;;;;;;;;;;;17.27;39.55;101083.22;10331177;28;901;-74
2024/01/12 14:18:47;;;;;;;;;;;;;;;17.25;39.66;101082.38;10332878;28;1964;-78
2024/01/12 14:23:43;;;;;;;;;;;;;;;17.27;39.44;101074.47;10332752;28;933;-77
2024/01/12 14:28:39;;;;;;;;;;;;;;;17.27;39.35;101083.22;10333217;28;863;-77
2024/01/12 14:33:35;;;;;;;;;;;;;;;17.22;39.57;101073.69;10332390;28;884;-77
2024/01/12 14:38:31;;;;;;;;;;;;;;;17.15;39.52;101079.97;10331607;28;1917;-77
2024/01/12 14:43:26;;;;;;;;;;;;;;;17.08;39.57;101085.34;10332577;28;939;-77
2024/01/12 14:48:22;;;;;;;;;;;;;;;17.04;39.63;101077.53;10331200;28;791;-74
2024/01/12 14:53:18;;;;;;;;;;;;;;;16.90;39.77;101077.78;10331564;28;945;-72
2024/01/12 14:58:14;;;;;;;;;;;;;;;16.55;40.17;101078.38;10331457;28;1894;-73
2024/01/12 15:03:11;;;;;;;;;;;;;;;16.39;39.89;101068.09;10332004;28;762;-73
2024/01/12 15:08:07;;;;;;;;;;;;;;;16.29;39.84;101063.88;10331653;28;1159;-73
2024/01/12 15:13:03;;;;;;;;;;;;;;;16.23;39.20;101058.72;10331008;28;872;-72
2024/01/12 15:17:59;;;;;;;;;;;;;;;16.22;39.39;101054.34;10331257;28;1957;-72
2024/01/12 15:22:55;;;;;;;;;;;;;;;16.34;38.71;101051.50;10329442;28;770;-76
2024/01/12 15:27:51;;;;;;;;;;;;;;;16.56;37.86;101051.16;10330545;28;892;-76
2024/01/12 15:32:46;;;;;;;;;;;;;;;16.68;37.44;101060.59;10330789;28;903;-76
2024/01/12 15:37:42;;;;;;;;;;;;;;;16.82;37.27;101061.25;10329415;28;1906;-76
2024/01/12 15:42:38;;;;;;;;;;;;;;;16.82;37.44;101067.41;10329257;28;842;-77
2024/01/12 15:47:34;;;;;;;;;;;;;;;16.91;37.21;101070.75;10330611;28;869;-77
2024/01/12 15:52:30;;;;;;;;;;;;;;;16.96;37.45;101058.38;10330349;28;802;-76
2024/01/12 15:57:26;;;;;;;;;;;;;;;16.94;37.68;101060.16;10329241;28;1894;-75
2024/01/12 16:02:22;;;;;;;;;;;;;;;16.96;37.90;101068.91;10329757;28;830;-75
2024/01/12 16:07:18;;;;;;;;;;;;;;;16.98;37.81;101059.22;10328822;28;825;-74
2024/01/12 16:12:14;;;;;;;;;;;;;;;17.00;38.13;101062.66;10328663;28;907;-76
2024/01/12 16:17:10;;;;;;;;;;;;;;;17.03;37.90;101060.00;10327760;28;1952;-76
2024/01/12 16:22:06;;;;;;;;;;;;;;;17.04;38.13;101064.34;10328302;28;793;-78
2024/01/12 16:27:02;;;;;;;;;;;;;;;17.05;38.06;101055.53;10328723;28;818;-81
2024/01/12 16:31:58;;;;;;;;;;;;;;;17.01;38.10;101053.88;10328584;28;790;-77
2024/01/12 16:36:53;;;;;;;;;;;;;;;17.04;38.19;101048.56;10327494;28;1976;-73
2024/01/12 16:41:51;;;;;;;;;;;;;;;17.09;38.01;101049.34;10328274;28;962;-77
2024/01/12 16:46:47;;;;;;;;;;;;;;;17.09;38.20;101044.94;10327392;28;882;-75
2024/01/12 16:51:43;;;;;;;;;;;;;;;17.08;38.30;101044.94;10327138;28;932;-78
2024/01/12 16:56:39;;;;;;;;;;;;;;;17.12;38.42;101038.72;10326867;28;1955;-76
2024/01/12 17:01:35;;;;;;;;;;;;;;;17.13;38.28;101040.44;10326862;28;865;-77
2024/01/12 17:06:30;;;;;;;;;;;;;;;17.12;38.15;101028.19;10327516;28;871;-77
2024/01/12 17:11:26;;;;;;;;;;;;;;;17.14;38.34;101021.13;10326568;28;956;-77
2024/01/12 17:16:22;;;;;;;;;;;;;;;17.08;38.30;101024.75;10326347;28;1961;-77
2024/01/12 17:21:18;;;;;;;;;;;;;;;17.15;38.48;101038.66;10326850;28;980;-77
2024/01/12 17:26:14;;;;;;;;;;;;;;;17.18;38.06;101035.97;10326161;28;777;-77
2024/01/12 17:31:10;;;;;;;;;;;;;;;17.17;38.51;101022.84;10325345;28;883;-77
2024/01/12 17:36:06;;;;;;;;;;;;;;;17.16;38.25;101007.91;10326468;28;1985;-77
2024/01/12 17:41:05;;;;;;;;;;;;;;;17.18;38.18;101022.78;10325696;28;926;-77
2024/01/12 17:46:02;;;;;;;;;;;;;;;17.17;38.04;101020.19;10325522;28;865;-77
2024/01/12 17:50:58;;;;;;;;;;;;;;;17.18;38.30;101022.78;10326439;28;877;-77
2024/01/12 17:55:53;;;;;;;;;;;;;;;17.20;38.33;101026.25;10325355;28;968;-77
2024/01/12 18:00:49;;;;;;;;;;;;;;;17.21;38.24;101024.50;10324651;28;1953;-77
2024/01/12 18:05:45;;;;;;;;;;;;;;;17.24;38.14;101030.59;10325832;28;879;-77
2024/01/12 18:10:41;;;;;;;;;;;;;;;17.21;38.27;101029.75;10325380;28;869;-77
2024/01/12 18:15:37;;;;;;;;;;;;;;;17.24;38.14;101022.69;10325057;28;799;-77
2024/01/12 18:20:33;;;;;;;;;;;;;;;17.21;38.35;101006.94;10325194;28;1925;-77
2024/01/12 18:25:31;;;;;;;;;;;;;;;17.23;38.30;101023.56;10324838;28;1072;-77
2024/01/12 18:30:27;;;;;;;;;;;;;;;17.27;38.28;101022.63;10324764;28;849;-77
2024/01/12 18:35:23;;;;;;;;;;;;;;;17.24;38.17;101020.06;10324457;28;1249;-76
2024/01/12 18:40:19;;;;;;;;;;;;;;;17.26;38.41;101020.00;10324011;28;1919;-77
2024/01/12 18:45:15;;;;;;;;;;;;;;;17.26;38.32;101007.69;10324546;28;936;-77
2024/01/12 18:50:10;;;;;;;;;;;;;;;17.26;38.36;101014.72;10324431;28;837;-77
2024/01/12 18:55:06;;;;;;;;;;;;;;;17.26;38.47;101012.97;10323717;28;841;-77
2024/01/12 19:00:02;;;;;;;;;;;;;;;17.27;38.26;101006.81;10331278;28;1894;-77
2024/01/12 19:04:58;;;;;;;;;;;;;;;17.25;38.46;101002.47;10331548;28;904;-78
2024/01/12 19:09:54;;;;;;;;;;;;;;;17.27;38.26;101006.81;10331988;28;901;-77
2024/01/12 19:14:50;;;;;;;;;;;;;;;17.27;38.27;101004.16;10331769;28;798;-76
2024/01/12 19:19:46;;;;;;;;;;;;;;;17.29;38.33;101005.00;10331972;28;1901;-77
2024/01/12 19:24:44;;;;;;;;;;;;;;;17.30;38.26;101003.25;10331825;28;863;-77
2024/01/12 19:29:42;;;;;;;;;;;;;;;17.29;38.32;101004.13;10331012;28;818;-77
2024/01/12 19:34:38;;;;;;;;;;;;;;;17.21;38.62;101006.06;10331064;28;890;-76
2024/01/12 19:39:34;;;;;;;;;;;;;;;17.25;38.56;101002.47;10330320;28;1965;-77
2024/01/12 19:44:30;;;;;;;;;;;;;;;17.28;38.34;100987.44;10330083;28;775;-76
2024/01/12 19:49:26;;;;;;;;;;;;;;;17.30;38.14;100990.91;10330682;28;757;-77
2024/01/12 19:54:22;;;;;;;;;;;;;;;17.30;38.35;100990.06;10329682;28;896;-76
2024/01/12 19:59:18;;;;;;;;;;;;;;;17.33;38.29;100981.22;10330149;28;1894;-77
2024/01/12 20:04:14;;;;;;;;;;;;;;;17.34;38.14;100985.59;10329277;28;854;-78
2024/01/12 20:09:10;;;;;;;;;;;;;;;17.31;38.18;100982.09;10328503;28;762;-77
2024/01/12 20:14:06;;;;;;;;;;;;;;;17.30;38.27;100974.25;10328995;28;789;-77
2024/01/12 20:19:02;;;;;;;;;;;;;;;17.37;38.21;100977.59;10328637;28;1902;-77
2024/01/12 20:23:58;;;;;;;;;;;;;;;17.35;38.02;100982.06;10329064;28;795;-77
2024/01/12 20:28:54;;;;;;;;;;;;;;;17.34;38.10;100972.41;10327654;28;1008;-76
2024/01/12 20:33:49;;;;;;;;;;;;;;;17.35;38.24;100966.25;10328096;28;789;-77
2024/01/12 20:38:45;;;;;;;;;;;;;;;17.30;38.13;100961.06;10328957;28;1918;-77
2024/01/12 20:43:41;;;;;;;;;;;;;;;17.24;38.44;100964.72;10328270;28;830;-77
2024/01/12 20:48:37;;;;;;;;;;;;;;;17.25;38.42;100965.56;10327711;28;885;-77
2024/01/12 20:53:33;;;;;;;;;;;;;;;17.20;38.22;100963.03;10327934;28;749;-77
2024/01/12 20:58:29;;;;;;;;;;;;;;;17.20;38.31;100955.13;10328374;28;1959;-77
2024/01/12 21:03:25;;;;;;;;;;;;;;;17.21;38.36;100950.72;10326947;28;912;-77
2024/01/12 21:08:21;;;;;;;;;;;;;;;17.19;38.32;100937.59;10326638;28;958;-77
2024/01/12 21:13:17;;;;;;;;;;;;;;;17.22;38.25;100937.53;10327239;28;842;-77
2024/01/12 21:18:13;;;;;;;;;;;;;;;17.17;38.27;100931.50;10327060;28;1901;-77
2024/01/12 21:23:09;;;;;;;;;;;;;;;17.13;38.09;100932.44;10326137;28;787;-77
2024/01/12 21:28:04;;;;;;;;;;;;;;;17.17;38.35;100925.34;10326090;28;1122;-77
2024/01/12 21:33:00;;;;;;;;;;;;;;;17.14;38.55;100925.44;10326592;28;825;-77
2024/01/12 21:37:56;;;;;;;;;;;;;;;17.09;38.41;100925.53;10325652;28;1918;-77
2024/01/12 21:42:54;;;;;;;;;;;;;;;17.06;38.66;100923.81;10325748;28;873;-77
2024/01/12 21:47:50;;;;;;;;;;;;;;;17.05;38.60;100916.78;10325863;28;798;-77
2024/01/12 21:52:46;;;;;;;;;;;;;;;17.04;38.77;100915.06;10325972;28;857;-77
2024/01/12 21:57:42;;;;;;;;;;;;;;;16.98;38.89;100914.34;10325339;28;1897;-76
2024/01/12 22:02:38;;;;;;;;;;;;;;;16.94;39.03;100913.53;10325278;28;941;-77
2024/01/12 22:07:34;;;;;;;;;;;;;;;16.94;38.64;100910.03;10325081;28;956;-77
2024/01/12 22:12:30;;;;;;;;;;;;;;;16.91;38.82;100907.47;10325173;28;794;-77
2024/01/12 22:17:26;;;;;;;;;;;;;;;16.88;38.73;100897.88;10325139;28;1926;-77
2024/01/12 22:22:22;;;;;;;;;;;;;;;16.86;38.77;100900.53;10324963;28;829;-77
2024/01/12 22:27:17;;;;;;;;;;;;;;;16.84;38.92;100898.81;10325487;28;930;-77
2024/01/12 22:32:13;;;;;;;;;;;;;;;16.81;38.77;100889.22;10327279;28;766;-77
2024/01/12 22:37:09;;;;;;;;;;;;;;;16.79;38.79;100883.16;10332642;28;1915;-77
2024/01/12 22:42:05;;;;;;;;;;;;;;;16.81;38.70;100880.47;10332507;28;959;-76
2024/01/12 22:47:01;;;;;;;;;;;;;;;16.80;38.93;100876.97;10332298;28;861;-76
2024/01/12 22:51:57;;;;;;;;;;;;;;;16.76;38.75;100862.09;10332667;28;969;-77
2024/01/12 22:56:53;;;;;;;;;;;;;;;16.79;38.83;100858.56;10331818;28;1961;-77
2024/01/12 23:01:48;;;;;;;;;;;;;;;16.78;38.70;100857.69;10332340;28;781;-77
2024/01/12 23:06:44;;;;;;;;;;;;;;;16.79;38.72;100856.81;10331545;28;808;-77
2024/01/12 23:11:40;;;;;;;;;;;;;;;16.78;38.85;100849.78;10331851;28;838;-77
2024/01/12 23:16:36;;;;;;;;;;;;;;;16.77;38.84;100850.72;10331246;28;1898;-77
2024/01/12 23:21:32;;;;;;;;;;;;;;;16.78;38.73;100847.16;10331542;28;857;-77
2024/01/12 23:26:28;;;;;;;;;;;;;;;16.78;38.83;100847.16;10330850;28;840;-77
2024/01/12 23:31:24;;;;;;;;;;;;;;;16.76;39.01;100846.28;10331207;28;814;-77
2024/01/12 23:36:20;;;;;;;;;;;;;;;16.75;38.81;100828.78;10330869;28;1984;-77
2024/01/12 23:41:15;;;;;;;;;;;;;;;16.75;39.13;100825.28;10329797;28;1051;-77
2024/01/12 23:46:11;;;;;;;;;;;;;;;16.75;38.86;100823.50;10329052;28;829;-77
2024/01/12 23:51:09;;;;;;;;;;;;;;;16.74;39.08;100824.41;10329894;28;838;-76
2024/01/12 23:56:05;;;;;;;;;;;;;;;16.72;39.05;100818.31;10329653;28;936;-77
